sensor_id;sensor_type;location;lat;lon;timestamp;P1;durP1;ratioP1;P2;durP2;ratioP2
17253;SDS011;32542;52.832;13.816;2024-03-08T00:00:04;7.05;;;5.00;;
17253;SDS011;32542;52.832;13.816;2024-03-08T00:03:12;7.63;;;5.10;;
17253;SDS011;32542;52.832;13.816;2024-03-08T00:06:16;5.95;;;4.28;;
17253;SDS011;32542;52.832;13.816;2024-03-08T00:09:19;6.53;;;4.63;;
17253;SDS011;32542;52.832;13.816;2024-03-08T00:12:22;6.18;;;4.68;;
17253;SDS011;32542;52.832;13.816;2024-03-08T00:15:27;7.07;;;4.68;;
17253;SDS011;32542;52.832;13.816;2024-03-08T00:18:31;7.20;;;4.25;;
17253;SDS011;32542;52.832;13.816;2024-03-08T00:21:35;6.25;;;4.95;;
17253;SDS011;32542;52.832;13.816;2024-03-08T00:24:38;6.32;;;4.88;;
17253;SDS011;32542;52.832;13.816;2024-03-08T00:27:41;6.03;;;4.38;;
17253;SDS011;32542;52.832;13.816;2024-03-08T00:30:44;6.15;;;4.55;;
17253;SDS011;32542;52.832;13.816;2024-03-08T00:33:47;7.10;;;5.03;;
17253;SDS011;32542;52.832;13.816;2024-03-08T00:36:52;6.70;;;4.50;;
17253;SDS011;32542;52.832;13.816;2024-03-08T00:39:55;6.60;;;4.85;;
17253;SDS011;32542;52.832;13.816;2024-03-08T00:42:57;6.97;;;5.10;;
17253;SDS011;32542;52.832;13.816;2024-03-08T00:46:00;5.90;;;4.68;;
17253;SDS011;32542;52.832;13.816;2024-03-08T00:49:03;5.72;;;4.57;;
17253;SDS011;32542;52.832;13.816;2024-03-08T00:52:07;6.45;;;4.35;;
17253;SDS011;32542;52.832;13.816;2024-03-08T00:55:10;5.68;;;4.40;;
17253;SDS011;32542;52.832;13.816;2024-03-08T00:58:13;5.18;;;4.30;;
17253;SDS011;32542;52.832;13.816;2024-03-08T01:01:17;5.72;;;4.50;;
17253;SDS011;32542;52.832;13.816;2024-03-08T01:04:20;6.82;;;4.60;;
17253;SDS011;32542;52.832;13.816;2024-03-08T01:07:25;6.35;;;4.60;;
17253;SDS011;32542;52.832;13.816;2024-03-08T01:10:28;6.03;;;4.38;;
17253;SDS011;32542;52.832;13.816;2024-03-08T01:13:31;5.68;;;4.38;;
17253;SDS011;32542;52.832;13.816;2024-03-08T01:16:34;6.45;;;4.68;;
17253;SDS011;32542;52.832;13.816;2024-03-08T01:19:37;7.55;;;4.25;;
17253;SDS011;32542;52.832;13.816;2024-03-08T01:22:41;5.95;;;4.15;;
17253;SDS011;32542;52.832;13.816;2024-03-08T01:25:44;5.20;;;4.20;;
17253;SDS011;32542;52.832;13.816;2024-03-08T01:28:46;7.25;;;4.50;;
17253;SDS011;32542;52.832;13.816;2024-03-08T01:31:49;5.60;;;4.18;;
17253;SDS011;32542;52.832;13.816;2024-03-08T01:34:53;5.00;;;4.05;;
17253;SDS011;32542;52.832;13.816;2024-03-08T01:37:58;6.13;;;4.70;;
17253;SDS011;32542;52.832;13.816;2024-03-08T01:41:01;5.35;;;4.13;;
17253;SDS011;32542;52.832;13.816;2024-03-08T01:44:04;5.60;;;4.20;;
17253;SDS011;32542;52.832;13.816;2024-03-08T01:47:08;6.40;;;4.50;;
17253;SDS011;32542;52.832;13.816;2024-03-08T01:50:11;5.65;;;4.15;;
17253;SDS011;32542;52.832;13.816;2024-03-08T01:53:15;5.20;;;4.35;;
17253;SDS011;32542;52.832;13.816;2024-03-08T01:56:20;4.57;;;3.65;;
17253;SDS011;32542;52.832;13.816;2024-03-08T01:59:23;5.85;;;4.00;;
17253;SDS011;32542;52.832;13.816;2024-03-08T02:02:28;6.05;;;4.20;;
17253;SDS011;32542;52.832;13.816;2024-03-08T02:05:32;5.05;;;4.18;;
17253;SDS011;32542;52.832;13.816;2024-03-08T02:08:37;5.43;;;3.88;;
17253;SDS011;32542;52.832;13.816;2024-03-08T02:11:40;5.40;;;4.00;;
17253;SDS011;32542;52.832;13.816;2024-03-08T02:14:44;6.25;;;4.32;;
17253;SDS011;32542;52.832;13.816;2024-03-08T02:17:47;4.70;;;4.10;;
17253;SDS011;32542;52.832;13.816;2024-03-08T02:20:52;5.82;;;4.22;;
17253;SDS011;32542;52.832;13.816;2024-03-08T02:23:55;5.55;;;4.38;;
17253;SDS011;32542;52.832;13.816;2024-03-08T02:26:58;4.28;;;3.65;;
17253;SDS011;32542;52.832;13.816;2024-03-08T02:30:01;4.85;;;3.95;;
17253;SDS011;32542;52.832;13.816;2024-03-08T02:33:05;5.32;;;4.38;;
17253;SDS011;32542;52.832;13.816;2024-03-08T02:36:09;5.75;;;3.83;;
17253;SDS011;32542;52.832;13.816;2024-03-08T02:39:13;5.40;;;4.32;;
17253;SDS011;32542;52.832;13.816;2024-03-08T02:42:16;5.65;;;4.20;;
17253;SDS011;32542;52.832;13.816;2024-03-08T02:45:19;5.68;;;4.35;;
17253;SDS011;32542;52.832;13.816;2024-03-08T02:48:22;6.20;;;4.13;;
17253;SDS011;32542;52.832;13.816;2024-03-08T02:51:26;4.82;;;4.07;;
17253;SDS011;32542;52.832;13.816;2024-03-08T02:54:32;6.00;;;4.25;;
17253;SDS011;32542;52.832;13.816;2024-03-08T02:57:36;5.80;;;4.10;;
17253;SDS011;32542;52.832;13.816;2024-03-08T03:00:39;4.85;;;3.85;;
17253;SDS011;32542;52.832;13.816;2024-03-08T03:03:42;5.35;;;4.10;;
17253;SDS011;32542;52.832;13.816;2024-03-08T03:06:46;7.57;;;4.45;;
17253;SDS011;32542;52.832;13.816;2024-03-08T03:09:49;9.38;;;4.82;;
17253;SDS011;32542;52.832;13.816;2024-03-08T03:12:52;5.05;;;4.28;;
17253;SDS011;32542;52.832;13.816;2024-03-08T03:15:55;6.60;;;4.70;;
17253;SDS011;32542;52.832;13.816;2024-03-08T03:18:59;5.00;;;3.95;;
17253;SDS011;32542;52.832;13.816;2024-03-08T03:22:05;5.68;;;4.50;;
17253;SDS011;32542;52.832;13.816;2024-03-08T03:25:11;5.68;;;4.30;;
17253;SDS011;32542;52.832;13.816;2024-03-08T03:28:14;5.50;;;4.20;;
17253;SDS011;32542;52.832;13.816;2024-03-08T03:31:19;5.32;;;4.05;;
17253;SDS011;32542;52.832;13.816;2024-03-08T03:34:25;5.05;;;3.92;;
17253;SDS011;32542;52.832;13.816;2024-03-08T03:37:29;4.80;;;4.00;;
17253;SDS011;32542;52.832;13.816;2024-03-08T03:40:32;6.60;;;4.25;;
17253;SDS011;32542;52.832;13.816;2024-03-08T03:43:35;4.60;;;3.97;;
17253;SDS011;32542;52.832;13.816;2024-03-08T03:46:41;4.88;;;3.90;;
17253;SDS011;32542;52.832;13.816;2024-03-08T03:49:45;5.38;;;3.80;;
17253;SDS011;32542;52.832;13.816;2024-03-08T03:52:49;5.75;;;4.20;;
17253;SDS011;32542;52.832;13.816;2024-03-08T03:55:52;5.15;;;4.03;;
17253;SDS011;32542;52.832;13.816;2024-03-08T03:58:55;5.65;;;4.00;;
17253;SDS011;32542;52.832;13.816;2024-03-08T04:01:58;5.22;;;4.50;;
17253;SDS011;32542;52.832;13.816;2024-03-08T04:05:01;5.30;;;4.00;;
17253;SDS011;32542;52.832;13.816;2024-03-08T04:08:06;4.80;;;3.92;;
17253;SDS011;32542;52.832;13.816;2024-03-08T04:11:09;6.20;;;4.55;;
17253;SDS011;32542;52.832;13.816;2024-03-08T04:14:12;6.85;;;4.25;;
17253;SDS011;32542;52.832;13.816;2024-03-08T04:17:14;5.45;;;3.97;;
17253;SDS011;32542;52.832;13.816;2024-03-08T04:20:19;5.10;;;4.00;;
17253;SDS011;32542;52.832;13.816;2024-03-08T04:23:24;5.13;;;3.85;;
17253;SDS011;32542;52.832;13.816;2024-03-08T04:26:27;4.78;;;3.88;;
17253;SDS011;32542;52.832;13.816;2024-03-08T04:29:29;5.45;;;4.07;;
17253;SDS011;32542;52.832;13.816;2024-03-08T04:32:33;5.78;;;4.20;;
17253;SDS011;32542;52.832;13.816;2024-03-08T04:35:37;5.53;;;3.95;;
17253;SDS011;32542;52.832;13.816;2024-03-08T04:38:42;5.63;;;4.18;;
17253;SDS011;32542;52.832;13.816;2024-03-08T04:41:44;5.60;;;4.28;;
17253;SDS011;32542;52.832;13.816;2024-03-08T04:44:47;4.85;;;3.72;;
17253;SDS011;32542;52.832;13.816;2024-03-08T04:47:50;5.07;;;3.78;;
17253;SDS011;32542;52.832;13.816;2024-03-08T04:50:54;4.85;;;3.63;;
17253;SDS011;32542;52.832;13.816;2024-03-08T04:53:58;4.80;;;3.83;;
17253;SDS011;32542;52.832;13.816;2024-03-08T04:57:02;4.65;;;3.67;;
17253;SDS011;32542;52.832;13.816;2024-03-08T05:00:10;6.00;;;4.05;;
17253;SDS011;32542;52.832;13.816;2024-03-08T05:03:13;4.80;;;4.00;;
17253;SDS011;32542;52.832;13.816;2024-03-08T05:06:16;5.32;;;3.92;;
17253;SDS011;32542;52.832;13.816;2024-03-08T05:09:21;5.05;;;3.88;;
17253;SDS011;32542;52.832;13.816;2024-03-08T05:12:25;5.65;;;3.88;;
17253;SDS011;32542;52.832;13.816;2024-03-08T05:15:28;5.53;;;3.80;;
17253;SDS011;32542;52.832;13.816;2024-03-08T05:18:30;5.10;;;3.85;;
17253;SDS011;32542;52.832;13.816;2024-03-08T05:21:34;5.55;;;3.90;;
17253;SDS011;32542;52.832;13.816;2024-03-08T05:24:39;4.75;;;3.88;;
17253;SDS011;32542;52.832;13.816;2024-03-08T05:27:41;5.20;;;3.88;;
17253;SDS011;32542;52.832;13.816;2024-03-08T05:30:44;5.30;;;3.78;;
17253;SDS011;32542;52.832;13.816;2024-03-08T05:33:47;5.55;;;3.70;;
17253;SDS011;32542;52.832;13.816;2024-03-08T05:36:50;4.07;;;3.65;;
17253;SDS011;32542;52.832;13.816;2024-03-08T05:39:54;5.68;;;4.13;;
17253;SDS011;32542;52.832;13.816;2024-03-08T05:42:57;5.30;;;4.13;;
17253;SDS011;32542;52.832;13.816;2024-03-08T05:46:00;4.65;;;3.85;;
17253;SDS011;32542;52.832;13.816;2024-03-08T05:49:05;5.32;;;3.70;;
17253;SDS011;32542;52.832;13.816;2024-03-08T05:52:12;4.47;;;3.78;;
17253;SDS011;32542;52.832;13.816;2024-03-08T05:55:17;4.70;;;3.78;;
17253;SDS011;32542;52.832;13.816;2024-03-08T05:58:20;4.15;;;3.53;;
17253;SDS011;32542;52.832;13.816;2024-03-08T06:01:23;4.45;;;3.55;;
17253;SDS011;32542;52.832;13.816;2024-03-08T06:04:26;4.85;;;3.60;;
17253;SDS011;32542;52.832;13.816;2024-03-08T06:07:28;6.03;;;4.35;;
17253;SDS011;32542;52.832;13.816;2024-03-08T06:10:33;4.53;;;3.85;;
17253;SDS011;32542;52.832;13.816;2024-03-08T06:13:36;4.47;;;3.47;;
17253;SDS011;32542;52.832;13.816;2024-03-08T06:16:39;5.45;;;3.78;;
17253;SDS011;32542;52.832;13.816;2024-03-08T06:19:42;5.95;;;4.03;;
17253;SDS011;32542;52.832;13.816;2024-03-08T06:22:45;5.60;;;3.58;;
17253;SDS011;32542;52.832;13.816;2024-03-08T06:25:49;4.03;;;3.63;;
17253;SDS011;32542;52.832;13.816;2024-03-08T06:28:52;5.72;;;3.58;;
17253;SDS011;32542;52.832;13.816;2024-03-08T06:31:55;4.60;;;3.75;;
17253;SDS011;32542;52.832;13.816;2024-03-08T06:34:58;4.20;;;3.50;;
17253;SDS011;32542;52.832;13.816;2024-03-08T06:38:01;4.80;;;3.92;;
17253;SDS011;32542;52.832;13.816;2024-03-08T06:41:05;5.03;;;3.63;;
17253;SDS011;32542;52.832;13.816;2024-03-08T06:44:08;4.75;;;3.78;;
17253;SDS011;32542;52.832;13.816;2024-03-08T06:47:10;4.97;;;3.80;;
17253;SDS011;32542;52.832;13.816;2024-03-08T06:50:13;4.00;;;3.33;;
17253;SDS011;32542;52.832;13.816;2024-03-08T06:53:16;3.90;;;3.40;;
17253;SDS011;32542;52.832;13.816;2024-03-08T06:56:25;6.38;;;4.10;;
17253;SDS011;32542;52.832;13.816;2024-03-08T06:59:28;4.95;;;4.20;;
17253;SDS011;32542;52.832;13.816;2024-03-08T07:02:31;7.20;;;4.05;;
17253;SDS011;32542;52.832;13.816;2024-03-08T07:05:34;6.35;;;4.75;;
17253;SDS011;32542;52.832;13.816;2024-03-08T07:08:37;5.80;;;4.13;;
17253;SDS011;32542;52.832;13.816;2024-03-08T07:11:41;5.50;;;4.00;;
17253;SDS011;32542;52.832;13.816;2024-03-08T07:14:45;6.15;;;4.20;;
17253;SDS011;32542;52.832;13.816;2024-03-08T07:17:48;11.93;;;6.65;;
17253;SDS011;32542;52.832;13.816;2024-03-08T07:20:54;11.82;;;7.57;;
17253;SDS011;32542;52.832;13.816;2024-03-08T07:23:57;13.10;;;8.13;;
17253;SDS011;32542;52.832;13.816;2024-03-08T07:27:22;11.23;;;7.68;;
17253;SDS011;32542;52.832;13.816;2024-03-08T07:30:25;12.88;;;8.05;;
17253;SDS011;32542;52.832;13.816;2024-03-08T07:33:52;14.52;;;8.77;;
17253;SDS011;32542;52.832;13.816;2024-03-08T07:36:55;13.35;;;8.32;;
17253;SDS011;32542;52.832;13.816;2024-03-08T07:39:59;17.00;;;8.95;;
17253;SDS011;32542;52.832;13.816;2024-03-08T07:43:03;13.73;;;9.02;;
17253;SDS011;32542;52.832;13.816;2024-03-08T07:46:06;23.88;;;10.38;;
17253;SDS011;32542;52.832;13.816;2024-03-08T07:53:39;55.75;;;13.43;;
17253;SDS011;32542;52.832;13.816;2024-03-08T07:56:42;66.55;;;12.38;;
17253;SDS011;32542;52.832;13.816;2024-03-08T07:59:47;66.88;;;11.10;;
17253;SDS011;32542;52.832;13.816;2024-03-08T08:02:50;46.05;;;11.40;;
17253;SDS011;32542;52.832;13.816;2024-03-08T08:05:53;54.35;;;10.70;;
17253;SDS011;32542;52.832;13.816;2024-03-08T08:08:56;54.92;;;11.30;;
17253;SDS011;32542;52.832;13.816;2024-03-08T08:11:59;53.08;;;10.45;;
17253;SDS011;32542;52.832;13.816;2024-03-08T08:15:05;50.75;;;10.63;;
17253;SDS011;32542;52.832;13.816;2024-03-08T08:18:08;49.10;;;10.63;;
17253;SDS011;32542;52.832;13.816;2024-03-08T08:21:11;40.85;;;10.13;;
17253;SDS011;32542;52.832;13.816;2024-03-08T08:24:14;47.05;;;9.40;;
17253;SDS011;32542;52.832;13.816;2024-03-08T08:27:17;42.47;;;9.88;;
17253;SDS011;32542;52.832;13.816;2024-03-08T08:30:21;47.03;;;9.35;;
17253;SDS011;32542;52.832;13.816;2024-03-08T08:33:29;34.42;;;9.05;;
17253;SDS011;32542;52.832;13.816;2024-03-08T08:36:32;35.95;;;9.18;;
17253;SDS011;32542;52.832;13.816;2024-03-08T08:39:35;40.25;;;9.43;;
17253;SDS011;32542;52.832;13.816;2024-03-08T08:42:39;37.88;;;8.15;;
17253;SDS011;32542;52.832;13.816;2024-03-08T08:45:44;26.95;;;8.48;;
17253;SDS011;32542;52.832;13.816;2024-03-08T08:48:48;35.40;;;9.88;;
17253;SDS011;32542;52.832;13.816;2024-03-08T08:51:51;33.08;;;8.93;;
17253;SDS011;32542;52.832;13.816;2024-03-08T08:54:59;38.95;;;8.70;;
17253;SDS011;32542;52.832;13.816;2024-03-08T08:58:02;33.65;;;7.93;;
17253;SDS011;32542;52.832;13.816;2024-03-08T09:01:06;38.88;;;8.60;;
17253;SDS011;32542;52.832;13.816;2024-03-08T09:04:11;33.38;;;9.35;;
17253;SDS011;32542;52.832;13.816;2024-03-08T09:07:14;36.00;;;9.80;;
17253;SDS011;32542;52.832;13.816;2024-03-08T09:10:18;33.10;;;8.13;;
17253;SDS011;32542;52.832;13.816;2024-03-08T09:13:21;32.45;;;8.82;;
17253;SDS011;32542;52.832;13.816;2024-03-08T09:16:34;21.70;;;7.47;;
17253;SDS011;32542;52.832;13.816;2024-03-08T09:19:38;34.42;;;8.00;;
17253;SDS011;32542;52.832;13.816;2024-03-08T09:22:43;26.00;;;7.68;;
17253;SDS011;32542;52.832;13.816;2024-03-08T09:25:46;22.98;;;7.38;;
17253;SDS011;32542;52.832;13.816;2024-03-08T09:28:49;29.95;;;8.35;;
17253;SDS011;32542;52.832;13.816;2024-03-08T09:31:53;25.27;;;7.68;;
17253;SDS011;32542;52.832;13.816;2024-03-08T09:34:56;25.30;;;6.68;;
17253;SDS011;32542;52.832;13.816;2024-03-08T09:37:59;27.45;;;7.25;;
17253;SDS011;32542;52.832;13.816;2024-03-08T09:41:02;22.35;;;7.05;;
17253;SDS011;32542;52.832;13.816;2024-03-08T09:44:06;29.75;;;7.50;;
17253;SDS011;32542;52.832;13.816;2024-03-08T09:47:10;19.13;;;6.63;;
17253;SDS011;32542;52.832;13.816;2024-03-08T09:50:15;24.25;;;6.90;;
17253;SDS011;32542;52.832;13.816;2024-03-08T09:53:19;29.42;;;6.60;;
17253;SDS011;32542;52.832;13.816;2024-03-08T09:56:23;23.42;;;7.13;;
17253;SDS011;32542;52.832;13.816;2024-03-08T09:59:28;45.47;;;8.63;;
17253;SDS011;32542;52.832;13.816;2024-03-08T10:02:50;28.23;;;7.30;;
17253;SDS011;32542;52.832;13.816;2024-03-08T10:05:56;24.73;;;6.90;;
17253;SDS011;32542;52.832;13.816;2024-03-08T10:09:01;28.15;;;8.07;;
17253;SDS011;32542;52.832;13.816;2024-03-08T10:12:07;29.85;;;7.57;;
17253;SDS011;32542;52.832;13.816;2024-03-08T10:15:12;21.63;;;6.75;;
17253;SDS011;32542;52.832;13.816;2024-03-08T10:18:19;26.05;;;6.70;;
17253;SDS011;32542;52.832;13.816;2024-03-08T10:21:23;23.90;;;7.38;;
17253;SDS011;32542;52.832;13.816;2024-03-08T10:24:26;23.27;;;6.78;;
17253;SDS011;32542;52.832;13.816;2024-03-08T10:27:29;26.00;;;6.68;;
17253;SDS011;32542;52.832;13.816;2024-03-08T10:30:32;39.70;;;8.75;;
17253;SDS011;32542;52.832;13.816;2024-03-08T10:33:36;29.02;;;7.07;;
17253;SDS011;32542;52.832;13.816;2024-03-08T10:36:41;27.17;;;6.57;;
17253;SDS011;32542;52.832;13.816;2024-03-08T10:39:45;19.85;;;7.43;;
17253;SDS011;32542;52.832;13.816;2024-03-08T10:42:55;28.15;;;7.38;;
17253;SDS011;32542;52.832;13.816;2024-03-08T10:46:02;23.65;;;7.20;;
17253;SDS011;32542;52.832;13.816;2024-03-08T10:49:17;28.92;;;7.25;;
17253;SDS011;32542;52.832;13.816;2024-03-08T10:52:20;25.58;;;7.35;;
17253;SDS011;32542;52.832;13.816;2024-03-08T10:55:23;24.48;;;6.43;;
17253;SDS011;32542;52.832;13.816;2024-03-08T10:58:28;20.55;;;6.15;;
17253;SDS011;32542;52.832;13.816;2024-03-08T11:01:33;27.02;;;7.20;;
17253;SDS011;32542;52.832;13.816;2024-03-08T11:04:38;28.02;;;8.52;;
17253;SDS011;32542;52.832;13.816;2024-03-08T11:07:41;27.20;;;9.60;;
17253;SDS011;32542;52.832;13.816;2024-03-08T11:10:48;37.35;;;10.48;;
17253;SDS011;32542;52.832;13.816;2024-03-08T11:13:54;34.88;;;11.25;;
17253;SDS011;32542;52.832;13.816;2024-03-08T11:16:57;27.13;;;10.68;;
17253;SDS011;32542;52.832;13.816;2024-03-08T11:20:02;28.52;;;10.70;;
17253;SDS011;32542;52.832;13.816;2024-03-08T11:23:07;28.15;;;10.65;;
17253;SDS011;32542;52.832;13.816;2024-03-08T11:26:18;26.00;;;10.60;;
17253;SDS011;32542;52.832;13.816;2024-03-08T11:29:32;28.08;;;10.60;;
17253;SDS011;32542;52.832;13.816;2024-03-08T11:32:37;22.90;;;9.63;;
17253;SDS011;32542;52.832;13.816;2024-03-08T11:35:43;28.20;;;10.65;;
17253;SDS011;32542;52.832;13.816;2024-03-08T11:38:47;23.75;;;10.15;;
17253;SDS011;32542;52.832;13.816;2024-03-08T11:41:51;23.17;;;10.25;;
17253;SDS011;32542;52.832;13.816;2024-03-08T11:44:55;24.38;;;9.57;;
17253;SDS011;32542;52.832;13.816;2024-03-08T11:47:59;25.23;;;9.15;;
17253;SDS011;32542;52.832;13.816;2024-03-08T11:51:04;22.55;;;9.18;;
17253;SDS011;32542;52.832;13.816;2024-03-08T11:54:10;18.40;;;8.80;;
17253;SDS011;32542;52.832;13.816;2024-03-08T11:57:14;21.80;;;9.00;;
17253;SDS011;32542;52.832;13.816;2024-03-08T12:00:18;24.00;;;8.68;;
17253;SDS011;32542;52.832;13.816;2024-03-08T12:03:26;20.20;;;8.80;;
17253;SDS011;32542;52.832;13.816;2024-03-08T12:06:37;24.60;;;8.45;;
17253;SDS011;32542;52.832;13.816;2024-03-08T12:09:42;18.95;;;8.05;;
17253;SDS011;32542;52.832;13.816;2024-03-08T12:12:48;18.60;;;8.00;;
17253;SDS011;32542;52.832;13.816;2024-03-08T12:15:52;20.13;;;8.05;;
17253;SDS011;32542;52.832;13.816;2024-03-08T12:18:56;17.25;;;8.13;;
17253;SDS011;32542;52.832;13.816;2024-03-08T12:22:08;17.08;;;8.00;;
17253;SDS011;32542;52.832;13.816;2024-03-08T12:25:12;18.73;;;7.63;;
17253;SDS011;32542;52.832;13.816;2024-03-08T12:28:15;17.23;;;7.32;;
17253;SDS011;32542;52.832;13.816;2024-03-08T12:31:20;22.08;;;7.53;;
17253;SDS011;32542;52.832;13.816;2024-03-08T12:34:24;17.63;;;6.30;;
17253;SDS011;32542;52.832;13.816;2024-03-08T12:37:30;18.38;;;7.47;;
17253;SDS011;32542;52.832;13.816;2024-03-08T12:40:34;15.70;;;7.10;;
17253;SDS011;32542;52.832;13.816;2024-03-08T12:43:42;15.30;;;6.43;;
17253;SDS011;32542;52.832;13.816;2024-03-08T12:46:50;13.90;;;6.55;;
17253;SDS011;32542;52.832;13.816;2024-03-08T12:49:55;12.23;;;6.40;;
17253;SDS011;32542;52.832;13.816;2024-03-08T12:52:59;13.57;;;6.38;;
17253;SDS011;32542;52.832;13.816;2024-03-08T12:56:05;16.20;;;6.78;;
17253;SDS011;32542;52.832;13.816;2024-03-08T12:59:09;11.98;;;7.03;;
17253;SDS011;32542;52.832;13.816;2024-03-08T13:02:14;16.25;;;6.15;;
17253;SDS011;32542;52.832;13.816;2024-03-08T13:05:18;12.57;;;6.22;;
17253;SDS011;32542;52.832;13.816;2024-03-08T13:08:23;17.83;;;10.85;;
17253;SDS011;32542;52.832;13.816;2024-03-08T13:11:29;19.83;;;11.65;;
17253;SDS011;32542;52.832;13.816;2024-03-08T13:14:32;15.98;;;10.35;;
17253;SDS011;32542;52.832;13.816;2024-03-08T13:17:36;19.25;;;10.27;;
17253;SDS011;32542;52.832;13.816;2024-03-08T13:20:41;18.92;;;9.35;;
17253;SDS011;32542;52.832;13.816;2024-03-08T13:23:51;14.60;;;8.27;;
17253;SDS011;32542;52.832;13.816;2024-03-08T13:26:55;16.63;;;8.32;;
17253;SDS011;32542;52.832;13.816;2024-03-08T13:29:58;16.75;;;8.15;;
17253;SDS011;32542;52.832;13.816;2024-03-08T13:33:00;17.42;;;7.75;;
17253;SDS011;32542;52.832;13.816;2024-03-08T13:36:07;20.17;;;7.90;;
17253;SDS011;32542;52.832;13.816;2024-03-08T13:39:17;11.85;;;7.50;;
17253;SDS011;32542;52.832;13.816;2024-03-08T13:42:22;19.45;;;6.63;;
17253;SDS011;32542;52.832;13.816;2024-03-08T13:45:25;13.13;;;6.45;;
17253;SDS011;32542;52.832;13.816;2024-03-08T13:48:28;14.80;;;6.57;;
17253;SDS011;32542;52.832;13.816;2024-03-08T13:51:31;24.58;;;6.85;;
17253;SDS011;32542;52.832;13.816;2024-03-08T13:54:35;14.57;;;6.13;;
17253;SDS011;32542;52.832;13.816;2024-03-08T13:57:40;12.45;;;7.03;;
17253;SDS011;32542;52.832;13.816;2024-03-08T14:00:43;11.70;;;5.88;;
17253;SDS011;32542;52.832;13.816;2024-03-08T14:03:47;10.63;;;6.30;;
17253;SDS011;32542;52.832;13.816;2024-03-08T14:06:50;11.75;;;5.75;;
17253;SDS011;32542;52.832;13.816;2024-03-08T14:10:02;18.60;;;6.25;;
17253;SDS011;32542;52.832;13.816;2024-03-08T14:13:08;8.73;;;5.82;;
17253;SDS011;32542;52.832;13.816;2024-03-08T14:16:13;9.55;;;5.90;;
17253;SDS011;32542;52.832;13.816;2024-03-08T14:19:16;25.00;;;6.45;;
17253;SDS011;32542;52.832;13.816;2024-03-08T14:22:19;10.52;;;5.80;;
17253;SDS011;32542;52.832;13.816;2024-03-08T14:25:24;10.95;;;5.72;;
17253;SDS011;32542;52.832;13.816;2024-03-08T14:28:27;15.88;;;6.15;;
17253;SDS011;32542;52.832;13.816;2024-03-08T14:31:30;12.00;;;5.20;;
17253;SDS011;32542;52.832;13.816;2024-03-08T14:34:33;10.70;;;5.57;;
17253;SDS011;32542;52.832;13.816;2024-03-08T14:37:36;9.63;;;5.45;;
17253;SDS011;32542;52.832;13.816;2024-03-08T14:40:41;10.35;;;4.82;;
17253;SDS011;32542;52.832;13.816;2024-03-08T14:43:48;9.50;;;5.53;;
17253;SDS011;32542;52.832;13.816;2024-03-08T14:46:51;10.00;;;5.43;;
17253;SDS011;32542;52.832;13.816;2024-03-08T14:49:54;9.48;;;5.32;;
17253;SDS011;32542;52.832;13.816;2024-03-08T14:52:58;10.23;;;5.25;;
17253;SDS011;32542;52.832;13.816;2024-03-08T14:56:03;11.80;;;5.82;;
17253;SDS011;32542;52.832;13.816;2024-03-08T14:59:07;10.50;;;5.72;;
17253;SDS011;32542;52.832;13.816;2024-03-08T15:02:10;9.35;;;5.20;;
17253;SDS011;32542;52.832;13.816;2024-03-08T15:05:14;8.85;;;5.20;;
17253;SDS011;32542;52.832;13.816;2024-03-08T15:08:22;7.45;;;5.30;;
17253;SDS011;32542;52.832;13.816;2024-03-08T15:11:28;9.02;;;5.32;;
17253;SDS011;32542;52.832;13.816;2024-03-08T15:14:31;8.45;;;4.65;;
17253;SDS011;32542;52.832;13.816;2024-03-08T15:17:34;7.30;;;4.93;;
17253;SDS011;32542;52.832;13.816;2024-03-08T15:20:38;11.20;;;5.47;;
17253;SDS011;32542;52.832;13.816;2024-03-08T15:23:41;7.88;;;5.20;;
17253;SDS011;32542;52.832;13.816;2024-03-08T15:26:49;10.40;;;5.90;;
17253;SDS011;32542;52.832;13.816;2024-03-08T15:29:56;15.65;;;5.97;;
17253;SDS011;32542;52.832;13.816;2024-03-08T15:33:00;14.77;;;5.95;;
17253;SDS011;32542;52.832;13.816;2024-03-08T15:36:05;12.05;;;6.35;;
17253;SDS011;32542;52.832;13.816;2024-03-08T15:39:10;10.70;;;6.13;;
17253;SDS011;32542;52.832;13.816;2024-03-08T15:42:15;9.50;;;6.13;;
17253;SDS011;32542;52.832;13.816;2024-03-08T15:45:18;10.98;;;6.07;;
17253;SDS011;32542;52.832;13.816;2024-03-08T15:48:21;10.43;;;5.97;;
17253;SDS011;32542;52.832;13.816;2024-03-08T15:51:24;8.90;;;5.60;;
17253;SDS011;32542;52.832;13.816;2024-03-08T15:54:27;10.60;;;5.95;;
17253;SDS011;32542;52.832;13.816;2024-03-08T15:57:31;8.43;;;6.07;;
17253;SDS011;32542;52.832;13.816;2024-03-08T16:00:34;11.82;;;5.40;;
17253;SDS011;32542;52.832;13.816;2024-03-08T16:03:40;14.35;;;5.82;;
17253;SDS011;32542;52.832;13.816;2024-03-08T16:06:43;9.60;;;5.40;;
17253;SDS011;32542;52.832;13.816;2024-03-08T16:09:45;10.60;;;5.53;;
17253;SDS011;32542;52.832;13.816;2024-03-08T16:12:51;9.18;;;5.72;;
17253;SDS011;32542;52.832;13.816;2024-03-08T16:15:54;11.90;;;5.32;;
17253;SDS011;32542;52.832;13.816;2024-03-08T16:18:59;10.35;;;5.38;;
17253;SDS011;32542;52.832;13.816;2024-03-08T16:22:03;6.15;;;4.60;;
17253;SDS011;32542;52.832;13.816;2024-03-08T16:25:07;8.32;;;5.18;;
17253;SDS011;32542;52.832;13.816;2024-03-08T16:28:15;9.15;;;5.15;;
17253;SDS011;32542;52.832;13.816;2024-03-08T16:31:19;7.97;;;5.30;;
17253;SDS011;32542;52.832;13.816;2024-03-08T16:34:22;8.38;;;5.35;;
17253;SDS011;32542;52.832;13.816;2024-03-08T16:37:25;8.75;;;5.25;;
17253;SDS011;32542;52.832;13.816;2024-03-08T16:40:30;11.13;;;4.85;;
17253;SDS011;32542;52.832;13.816;2024-03-08T16:43:34;7.18;;;4.85;;
17253;SDS011;32542;52.832;13.816;2024-03-08T16:46:38;8.13;;;4.97;;
17253;SDS011;32542;52.832;13.816;2024-03-08T16:49:42;12.85;;;5.22;;
17253;SDS011;32542;52.832;13.816;2024-03-08T16:52:45;9.57;;;5.43;;
17253;SDS011;32542;52.832;13.816;2024-03-08T16:55:51;8.80;;;4.88;;
17253;SDS011;32542;52.832;13.816;2024-03-08T16:58:56;10.23;;;5.20;;
17253;SDS011;32542;52.832;13.816;2024-03-08T17:01:58;7.38;;;5.15;;
17253;SDS011;32542;52.832;13.816;2024-03-08T17:05:02;9.95;;;5.07;;
17253;SDS011;32542;52.832;13.816;2024-03-08T17:08:07;7.95;;;4.60;;
17253;SDS011;32542;52.832;13.816;2024-03-08T17:11:11;8.50;;;4.85;;
17253;SDS011;32542;52.832;13.816;2024-03-08T17:14:20;11.07;;;5.20;;
17253;SDS011;32542;52.832;13.816;2024-03-08T17:17:23;7.00;;;5.07;;
17253;SDS011;32542;52.832;13.816;2024-03-08T17:20:26;12.80;;;5.05;;
17253;SDS011;32542;52.832;13.816;2024-03-08T17:23:31;14.02;;;5.57;;
17253;SDS011;32542;52.832;13.816;2024-03-08T17:26:34;10.93;;;4.88;;
17253;SDS011;32542;52.832;13.816;2024-03-08T17:29:38;11.70;;;5.40;;
17253;SDS011;32542;52.832;13.816;2024-03-08T17:32:41;9.00;;;5.10;;
17253;SDS011;32542;52.832;13.816;2024-03-08T17:35:44;9.32;;;5.40;;
17253;SDS011;32542;52.832;13.816;2024-03-08T17:38:47;16.77;;;5.53;;
17253;SDS011;32542;52.832;13.816;2024-03-08T17:41:52;8.32;;;4.72;;
17253;SDS011;32542;52.832;13.816;2024-03-08T17:44:56;11.30;;;4.60;;
17253;SDS011;32542;52.832;13.816;2024-03-08T17:48:02;9.18;;;5.00;;
17253;SDS011;32542;52.832;13.816;2024-03-08T17:51:06;11.38;;;5.63;;
17253;SDS011;32542;52.832;13.816;2024-03-08T17:54:09;12.85;;;5.38;;
17253;SDS011;32542;52.832;13.816;2024-03-08T17:57:15;9.52;;;4.80;;
17253;SDS011;32542;52.832;13.816;2024-03-08T18:00:21;14.60;;;4.95;;
17253;SDS011;32542;52.832;13.816;2024-03-08T18:03:30;10.07;;;5.00;;
17253;SDS011;32542;52.832;13.816;2024-03-08T18:06:33;7.47;;;4.93;;
17253;SDS011;32542;52.832;13.816;2024-03-08T18:09:38;10.27;;;4.93;;